sensor_id;sensor_type;location;lat;lon;timestamp;P1;durP1;ratioP1;P2;durP2;ratioP2
79464;SDS011;68932;47.410;8.232;2023-09-30T00:01:37;11.40;;;4.30;;
79464;SDS011;68932;47.410;8.232;2023-09-30T00:04:05;13.10;;;5.30;;
79464;SDS011;68932;47.410;8.232;2023-09-30T00:06:34;14.80;;;5.40;;
79464;SDS011;68932;47.410;8.232;2023-09-30T00:09:02;13.40;;;4.60;;
79464;SDS011;68932;47.410;8.232;2023-09-30T00:11:31;11.90;;;4.70;;
79464;SDS011;68932;47.410;8.232;2023-09-30T00:13:59;9.90;;;4.20;;
79464;SDS011;68932;47.410;8.232;2023-09-30T00:16:27;12.70;;;4.60;;
79464;SDS011;68932;47.410;8.232;2023-09-30T00:18:55;13.10;;;4.30;;
79464;SDS011;68932;47.410;8.232;2023-09-30T00:21:24;10.70;;;3.90;;
79464;SDS011;68932;47.410;8.232;2023-09-30T00:23:52;11.50;;;4.50;;
79464;SDS011;68932;47.410;8.232;2023-09-30T00:26:20;14.70;;;5.60;;
79464;SDS011;68932;47.410;8.232;2023-09-30T00:28:49;14.50;;;4.50;;
79464;SDS011;68932;47.410;8.232;2023-09-30T00:31:17;12.20;;;5.00;;
79464;SDS011;68932;47.410;8.232;2023-09-30T00:33:45;12.10;;;4.50;;
79464;SDS011;68932;47.410;8.232;2023-09-30T00:36:14;14.10;;;4.90;;
79464;SDS011;68932;47.410;8.232;2023-09-30T00:38:42;11.70;;;4.60;;
79464;SDS011;68932;47.410;8.232;2023-09-30T00:41:11;15.50;;;4.70;;
79464;SDS011;68932;47.410;8.232;2023-09-30T00:43:39;16.70;;;4.40;;
79464;SDS011;68932;47.410;8.232;2023-09-30T00:46:16;12.10;;;4.20;;
79464;SDS011;68932;47.410;8.232;2023-09-30T00:48:50;13.90;;;5.20;;
79464;SDS011;68932;47.410;8.232;2023-09-30T00:51:19;11.50;;;4.30;;
79464;SDS011;68932;47.410;8.232;2023-09-30T00:53:49;12.70;;;4.60;;
79464;SDS011;68932;47.410;8.232;2023-09-30T00:56:18;11.70;;;4.60;;
79464;SDS011;68932;47.410;8.232;2023-09-30T00:58:49;14.60;;;5.00;;
79464;SDS011;68932;47.410;8.232;2023-09-30T01:01:18;11.70;;;4.70;;
79464;SDS011;68932;47.410;8.232;2023-09-30T01:03:48;12.60;;;4.70;;
79464;SDS011;68932;47.410;8.232;2023-09-30T01:06:16;10.80;;;4.60;;
79464;SDS011;68932;47.410;8.232;2023-09-30T01:08:45;11.70;;;4.80;;
79464;SDS011;68932;47.410;8.232;2023-09-30T01:11:14;16.90;;;5.70;;
79464;SDS011;68932;47.410;8.232;2023-09-30T01:13:43;12.20;;;5.00;;
79464;SDS011;68932;47.410;8.232;2023-09-30T01:16:11;13.30;;;4.70;;
79464;SDS011;68932;47.410;8.232;2023-09-30T01:18:39;12.50;;;4.70;;
79464;SDS011;68932;47.410;8.232;2023-09-30T01:21:08;16.30;;;5.50;;
79464;SDS011;68932;47.410;8.232;2023-09-30T01:23:37;16.10;;;5.50;;
79464;SDS011;68932;47.410;8.232;2023-09-30T01:26:06;15.60;;;5.30;;
79464;SDS011;68932;47.410;8.232;2023-09-30T01:28:35;13.30;;;4.80;;
79464;SDS011;68932;47.410;8.232;2023-09-30T01:31:04;12.90;;;5.90;;
79464;SDS011;68932;47.410;8.232;2023-09-30T01:33:33;13.40;;;4.90;;
79464;SDS011;68932;47.410;8.232;2023-09-30T01:36:01;14.80;;;4.90;;
79464;SDS011;68932;47.410;8.232;2023-09-30T01:38:30;14.50;;;4.60;;
79464;SDS011;68932;47.410;8.232;2023-09-30T01:40:58;14.00;;;4.80;;
79464;SDS011;68932;47.410;8.232;2023-09-30T01:43:26;13.10;;;4.50;;
79464;SDS011;68932;47.410;8.232;2023-09-30T01:45:55;11.90;;;5.10;;
79464;SDS011;68932;47.410;8.232;2023-09-30T01:48:23;12.90;;;4.60;;
79464;SDS011;68932;47.410;8.232;2023-09-30T01:50:51;12.50;;;4.40;;
79464;SDS011;68932;47.410;8.232;2023-09-30T01:53:20;12.40;;;4.30;;
79464;SDS011;68932;47.410;8.232;2023-09-30T01:55:48;14.10;;;4.60;;
79464;SDS011;68932;47.410;8.232;2023-09-30T01:58:16;13.50;;;5.40;;
79464;SDS011;68932;47.410;8.232;2023-09-30T02:00:45;12.90;;;4.90;;
79464;SDS011;68932;47.410;8.232;2023-09-30T02:03:13;13.40;;;4.70;;
79464;SDS011;68932;47.410;8.232;2023-09-30T02:05:42;13.60;;;4.60;;
79464;SDS011;68932;47.410;8.232;2023-09-30T02:08:10;13.90;;;4.90;;
79464;SDS011;68932;47.410;8.232;2023-09-30T02:10:38;15.30;;;4.70;;
79464;SDS011;68932;47.410;8.232;2023-09-30T02:13:07;12.70;;;4.40;;
79464;SDS011;68932;47.410;8.232;2023-09-30T02:15:35;14.40;;;5.00;;
79464;SDS011;68932;47.410;8.232;2023-09-30T02:18:06;11.80;;;4.70;;
79464;SDS011;68932;47.410;8.232;2023-09-30T02:20:34;14.90;;;5.20;;
79464;SDS011;68932;47.410;8.232;2023-09-30T02:23:03;11.60;;;4.00;;
79464;SDS011;68932;47.410;8.232;2023-09-30T02:25:31;12.60;;;4.80;;
79464;SDS011;68932;47.410;8.232;2023-09-30T02:28:00;12.40;;;4.20;;
79464;SDS011;68932;47.410;8.232;2023-09-30T02:30:28;12.50;;;3.70;;
79464;SDS011;68932;47.410;8.232;2023-09-30T02:32:56;12.90;;;4.20;;
79464;SDS011;68932;47.410;8.232;2023-09-30T02:35:25;13.00;;;4.40;;
79464;SDS011;68932;47.410;8.232;2023-09-30T02:37:53;11.60;;;4.30;;
79464;SDS011;68932;47.410;8.232;2023-09-30T02:40:21;12.50;;;4.20;;
79464;SDS011;68932;47.410;8.232;2023-09-30T02:42:50;11.80;;;4.30;;
79464;SDS011;68932;47.410;8.232;2023-09-30T02:45:19;13.00;;;4.10;;
79464;SDS011;68932;47.410;8.232;2023-09-30T02:47:47;10.30;;;3.80;;
79464;SDS011;68932;47.410;8.232;2023-09-30T02:50:15;10.10;;;3.70;;
79464;SDS011;68932;47.410;8.232;2023-09-30T02:52:43;8.50;;;3.90;;
79464;SDS011;68932;47.410;8.232;2023-09-30T02:55:12;9.90;;;4.00;;
79464;SDS011;68932;47.410;8.232;2023-09-30T02:57:40;9.70;;;3.50;;
79464;SDS011;68932;47.410;8.232;2023-09-30T03:00:09;12.30;;;3.70;;
79464;SDS011;68932;47.410;8.232;2023-09-30T03:02:38;14.00;;;4.00;;
79464;SDS011;68932;47.410;8.232;2023-09-30T03:05:08;13.10;;;3.60;;
79464;SDS011;68932;47.410;8.232;2023-09-30T03:07:37;12.60;;;4.00;;
79464;SDS011;68932;47.410;8.232;2023-09-30T03:10:06;10.90;;;4.00;;
79464;SDS011;68932;47.410;8.232;2023-09-30T03:12:34;8.60;;;3.30;;
79464;SDS011;68932;47.410;8.232;2023-09-30T03:15:04;12.60;;;4.20;;
79464;SDS011;68932;47.410;8.232;2023-09-30T03:17:33;10.50;;;3.80;;
79464;SDS011;68932;47.410;8.232;2023-09-30T03:20:02;12.80;;;4.10;;
79464;SDS011;68932;47.410;8.232;2023-09-30T03:22:31;12.20;;;4.30;;
79464;SDS011;68932;47.410;8.232;2023-09-30T03:25:00;9.30;;;3.50;;
79464;SDS011;68932;47.410;8.232;2023-09-30T03:27:28;10.90;;;4.00;;
79464;SDS011;68932;47.410;8.232;2023-09-30T03:29:56;10.80;;;3.50;;
79464;SDS011;68932;47.410;8.232;2023-09-30T03:32:24;11.70;;;3.70;;
79464;SDS011;68932;47.410;8.232;2023-09-30T03:34:53;11.00;;;4.20;;
79464;SDS011;68932;47.410;8.232;2023-09-30T03:37:21;9.80;;;3.10;;
79464;SDS011;68932;47.410;8.232;2023-09-30T03:39:50;11.90;;;3.60;;
79464;SDS011;68932;47.410;8.232;2023-09-30T03:42:18;11.20;;;4.30;;
79464;SDS011;68932;47.410;8.232;2023-09-30T03:44:46;9.00;;;3.80;;
79464;SDS011;68932;47.410;8.232;2023-09-30T03:47:15;11.50;;;4.90;;
79464;SDS011;68932;47.410;8.232;2023-09-30T03:49:45;8.70;;;3.50;;
79464;SDS011;68932;47.410;8.232;2023-09-30T03:52:14;8.70;;;3.10;;
79464;SDS011;68932;47.410;8.232;2023-09-30T03:54:42;9.10;;;3.40;;
79464;SDS011;68932;47.410;8.232;2023-09-30T03:57:10;7.80;;;3.10;;
79464;SDS011;68932;47.410;8.232;2023-09-30T03:59:38;8.90;;;3.50;;
79464;SDS011;68932;47.410;8.232;2023-09-30T04:02:06;9.00;;;3.40;;
79464;SDS011;68932;47.410;8.232;2023-09-30T04:04:35;9.40;;;3.10;;
79464;SDS011;68932;47.410;8.232;2023-09-30T04:07:03;10.30;;;3.00;;
79464;SDS011;68932;47.410;8.232;2023-09-30T04:09:31;9.10;;;2.90;;
79464;SDS011;68932;47.410;8.232;2023-09-30T04:12:00;6.20;;;2.70;;
79464;SDS011;68932;47.410;8.232;2023-09-30T04:14:28;7.90;;;3.70;;
79464;SDS011;68932;47.410;8.232;2023-09-30T04:16:56;7.10;;;2.50;;
79464;SDS011;68932;47.410;8.232;2023-09-30T04:19:24;7.30;;;3.40;;
79464;SDS011;68932;47.410;8.232;2023-09-30T04:21:53;10.10;;;2.90;;
79464;SDS011;68932;47.410;8.232;2023-09-30T04:24:21;9.80;;;3.10;;
79464;SDS011;68932;47.410;8.232;2023-09-30T04:26:49;8.60;;;3.20;;
79464;SDS011;68932;47.410;8.232;2023-09-30T04:29:18;10.00;;;3.20;;
79464;SDS011;68932;47.410;8.232;2023-09-30T04:31:46;6.70;;;2.60;;
79464;SDS011;68932;47.410;8.232;2023-09-30T04:34:14;9.90;;;3.50;;
79464;SDS011;68932;47.410;8.232;2023-09-30T04:36:42;9.10;;;3.20;;
79464;SDS011;68932;47.410;8.232;2023-09-30T04:39:10;9.40;;;3.10;;
79464;SDS011;68932;47.410;8.232;2023-09-30T04:41:39;9.40;;;2.70;;
79464;SDS011;68932;47.410;8.232;2023-09-30T04:44:07;9.50;;;3.20;;
79464;SDS011;68932;47.410;8.232;2023-09-30T04:46:35;9.70;;;4.10;;
79464;SDS011;68932;47.410;8.232;2023-09-30T04:49:04;8.80;;;3.20;;
79464;SDS011;68932;47.410;8.232;2023-09-30T04:51:32;9.00;;;3.20;;
79464;SDS011;68932;47.410;8.232;2023-09-30T04:54:00;7.90;;;3.10;;
79464;SDS011;68932;47.410;8.232;2023-09-30T04:56:30;6.50;;;2.80;;
79464;SDS011;68932;47.410;8.232;2023-09-30T04:58:58;7.70;;;3.60;;
79464;SDS011;68932;47.410;8.232;2023-09-30T05:01:26;7.20;;;2.90;;
79464;SDS011;68932;47.410;8.232;2023-09-30T05:03:55;8.20;;;3.20;;
79464;SDS011;68932;47.410;8.232;2023-09-30T05:06:23;8.10;;;3.10;;
79464;SDS011;68932;47.410;8.232;2023-09-30T05:08:51;8.80;;;3.00;;
79464;SDS011;68932;47.410;8.232;2023-09-30T05:11:20;8.60;;;3.00;;
79464;SDS011;68932;47.410;8.232;2023-09-30T05:13:48;12.00;;;3.40;;
79464;SDS011;68932;47.410;8.232;2023-09-30T05:16:16;11.70;;;4.70;;
79464;SDS011;68932;47.410;8.232;2023-09-30T05:18:45;13.90;;;3.90;;
79464;SDS011;68932;47.410;8.232;2023-09-30T05:21:13;7.20;;;2.90;;
79464;SDS011;68932;47.410;8.232;2023-09-30T05:23:42;8.10;;;2.90;;
79464;SDS011;68932;47.410;8.232;2023-09-30T05:26:10;8.40;;;2.90;;
79464;SDS011;68932;47.410;8.232;2023-09-30T05:28:38;7.80;;;3.00;;
79464;SDS011;68932;47.410;8.232;2023-09-30T05:31:07;9.90;;;3.20;;
79464;SDS011;68932;47.410;8.232;2023-09-30T05:33:35;7.90;;;2.80;;
79464;SDS011;68932;47.410;8.232;2023-09-30T05:36:04;7.10;;;3.10;;
79464;SDS011;68932;47.410;8.232;2023-09-30T05:38:32;8.90;;;3.40;;
79464;SDS011;68932;47.410;8.232;2023-09-30T05:41:00;7.90;;;3.30;;
79464;SDS011;68932;47.410;8.232;2023-09-30T05:43:29;10.10;;;3.70;;
79464;SDS011;68932;47.410;8.232;2023-09-30T05:45:57;8.80;;;3.40;;
79464;SDS011;68932;47.410;8.232;2023-09-30T05:48:25;11.80;;;3.80;;
79464;SDS011;68932;47.410;8.232;2023-09-30T05:50:53;8.20;;;4.00;;
79464;SDS011;68932;47.410;8.232;2023-09-30T05:53:22;13.00;;;5.20;;
79464;SDS011;68932;47.410;8.232;2023-09-30T05:55:50;13.60;;;4.30;;
79464;SDS011;68932;47.410;8.232;2023-09-30T05:58:18;11.80;;;4.40;;
79464;SDS011;68932;47.410;8.232;2023-09-30T06:00:47;13.50;;;4.30;;
79464;SDS011;68932;47.410;8.232;2023-09-30T06:03:15;11.80;;;4.60;;
79464;SDS011;68932;47.410;8.232;2023-09-30T06:05:43;13.30;;;5.00;;
79464;SDS011;68932;47.410;8.232;2023-09-30T06:08:11;14.50;;;5.80;;
79464;SDS011;68932;47.410;8.232;2023-09-30T06:10:41;14.40;;;5.30;;
79464;SDS011;68932;47.410;8.232;2023-09-30T06:13:10;15.80;;;5.70;;
79464;SDS011;68932;47.410;8.232;2023-09-30T06:15:39;17.10;;;5.60;;
79464;SDS011;68932;47.410;8.232;2023-09-30T06:18:08;15.20;;;6.10;;
79464;SDS011;68932;47.410;8.232;2023-09-30T06:20:36;13.30;;;5.50;;
79464;SDS011;68932;47.410;8.232;2023-09-30T06:23:04;15.10;;;5.90;;
79464;SDS011;68932;47.410;8.232;2023-09-30T06:25:33;22.00;;;6.20;;
79464;SDS011;68932;47.410;8.232;2023-09-30T06:28:01;17.20;;;6.20;;
79464;SDS011;68932;47.410;8.232;2023-09-30T06:30:30;16.00;;;5.90;;
79464;SDS011;68932;47.410;8.232;2023-09-30T06:32:58;13.60;;;4.90;;
79464;SDS011;68932;47.410;8.232;2023-09-30T06:35:28;14.40;;;6.70;;
79464;SDS011;68932;47.410;8.232;2023-09-30T06:37:56;18.40;;;6.60;;
79464;SDS011;68932;47.410;8.232;2023-09-30T06:40:24;19.20;;;6.10;;
79464;SDS011;68932;47.410;8.232;2023-09-30T06:42:52;13.90;;;5.70;;
79464;SDS011;68932;47.410;8.232;2023-09-30T06:45:21;15.70;;;5.80;;
79464;SDS011;68932;47.410;8.232;2023-09-30T06:47:49;15.20;;;5.70;;
79464;SDS011;68932;47.410;8.232;2023-09-30T06:50:17;13.90;;;5.60;;
79464;SDS011;68932;47.410;8.232;2023-09-30T06:52:46;13.50;;;5.80;;
79464;SDS011;68932;47.410;8.232;2023-09-30T06:55:14;13.60;;;5.70;;
79464;SDS011;68932;47.410;8.232;2023-09-30T06:57:42;14.20;;;5.40;;
79464;SDS011;68932;47.410;8.232;2023-09-30T07:00:11;13.10;;;5.00;;
79464;SDS011;68932;47.410;8.232;2023-09-30T07:02:41;14.20;;;4.90;;
79464;SDS011;68932;47.410;8.232;2023-09-30T07:05:10;11.70;;;4.80;;
79464;SDS011;68932;47.410;8.232;2023-09-30T07:07:39;11.40;;;4.90;;
79464;SDS011;68932;47.410;8.232;2023-09-30T07:10:09;15.80;;;5.80;;
79464;SDS011;68932;47.410;8.232;2023-09-30T07:12:38;11.90;;;5.00;;
79464;SDS011;68932;47.410;8.232;2023-09-30T07:15:07;15.30;;;5.50;;
79464;SDS011;68932;47.410;8.232;2023-09-30T07:17:37;18.30;;;6.00;;
79464;SDS011;68932;47.410;8.232;2023-09-30T07:20:06;13.60;;;5.70;;
79464;SDS011;68932;47.410;8.232;2023-09-30T07:22:35;17.40;;;6.10;;
79464;SDS011;68932;47.410;8.232;2023-09-30T07:25:04;14.20;;;5.60;;
79464;SDS011;68932;47.410;8.232;2023-09-30T07:27:33;11.80;;;5.00;;
79464;SDS011;68932;47.410;8.232;2023-09-30T07:30:01;11.30;;;4.30;;
79464;SDS011;68932;47.410;8.232;2023-09-30T07:32:30;12.40;;;5.10;;
79464;SDS011;68932;47.410;8.232;2023-09-30T07:34:58;12.30;;;4.80;;
79464;SDS011;68932;47.410;8.232;2023-09-30T07:37:27;11.00;;;4.10;;
79464;SDS011;68932;47.410;8.232;2023-09-30T07:39:55;11.10;;;4.30;;
79464;SDS011;68932;47.410;8.232;2023-09-30T07:42:23;10.60;;;3.70;;
79464;SDS011;68932;47.410;8.232;2023-09-30T07:44:52;9.80;;;3.70;;
79464;SDS011;68932;47.410;8.232;2023-09-30T07:47:20;12.60;;;4.80;;
79464;SDS011;68932;47.410;8.232;2023-09-30T07:49:48;10.60;;;4.00;;
79464;SDS011;68932;47.410;8.232;2023-09-30T07:52:16;11.30;;;4.40;;
79464;SDS011;68932;47.410;8.232;2023-09-30T07:54:45;9.90;;;3.70;;
79464;SDS011;68932;47.410;8.232;2023-09-30T07:57:13;10.70;;;4.10;;
79464;SDS011;68932;47.410;8.232;2023-09-30T07:59:41;9.40;;;3.90;;
79464;SDS011;68932;47.410;8.232;2023-09-30T08:02:10;11.70;;;4.50;;
79464;SDS011;68932;47.410;8.232;2023-09-30T08:04:38;12.70;;;4.00;;
79464;SDS011;68932;47.410;8.232;2023-09-30T08:07:06;10.20;;;4.90;;
79464;SDS011;68932;47.410;8.232;2023-09-30T08:09:34;9.00;;;4.40;;
79464;SDS011;68932;47.410;8.232;2023-09-30T08:12:03;14.70;;;6.80;;
79464;SDS011;68932;47.410;8.232;2023-09-30T08:14:32;12.10;;;5.30;;
79464;SDS011;68932;47.410;8.232;2023-09-30T08:17:00;11.20;;;4.30;;
79464;SDS011;68932;47.410;8.232;2023-09-30T08:19:28;8.90;;;3.60;;
79464;SDS011;68932;47.410;8.232;2023-09-30T08:21:56;10.20;;;3.30;;
79464;SDS011;68932;47.410;8.232;2023-09-30T08:24:25;10.40;;;3.60;;
79464;SDS011;68932;47.410;8.232;2023-09-30T08:26:54;9.50;;;3.80;;
79464;SDS011;68932;47.410;8.232;2023-09-30T08:29:23;10.20;;;4.50;;
79464;SDS011;68932;47.410;8.232;2023-09-30T08:31:51;11.40;;;3.90;;
79464;SDS011;68932;47.410;8.232;2023-09-30T08:34:19;10.60;;;4.50;;
79464;SDS011;68932;47.410;8.232;2023-09-30T08:36:48;10.70;;;3.90;;
79464;SDS011;68932;47.410;8.232;2023-09-30T08:39:16;9.10;;;4.00;;
79464;SDS011;68932;47.410;8.232;2023-09-30T08:41:44;11.20;;;4.10;;
79464;SDS011;68932;47.410;8.232;2023-09-30T08:44:12;12.30;;;3.90;;
79464;SDS011;68932;47.410;8.232;2023-09-30T08:46:41;9.10;;;3.70;;
79464;SDS011;68932;47.410;8.232;2023-09-30T08:49:10;11.60;;;4.40;;
79464;SDS011;68932;47.410;8.232;2023-09-30T08:51:40;12.80;;;4.40;;
79464;SDS011;68932;47.410;8.232;2023-09-30T08:54:09;11.10;;;4.70;;
79464;SDS011;68932;47.410;8.232;2023-09-30T08:56:38;11.40;;;4.00;;
79464;SDS011;68932;47.410;8.232;2023-09-30T08:59:11;8.90;;;4.10;;
79464;SDS011;68932;47.410;8.232;2023-09-30T09:01:40;7.90;;;3.70;;
79464;SDS011;68932;47.410;8.232;2023-09-30T09:04:09;9.30;;;4.30;;
79464;SDS011;68932;47.410;8.232;2023-09-30T09:06:38;8.90;;;4.30;;
79464;SDS011;68932;47.410;8.232;2023-09-30T09:09:16;11.50;;;4.10;;
79464;SDS011;68932;47.410;8.232;2023-09-30T09:11:45;10.80;;;3.80;;
79464;SDS011;68932;47.410;8.232;2023-09-30T09:14:14;11.30;;;4.10;;
79464;SDS011;68932;47.410;8.232;2023-09-30T09:16:52;10.20;;;4.10;;
79464;SDS011;68932;47.410;8.232;2023-09-30T09:19:22;10.00;;;4.20;;
79464;SDS011;68932;47.410;8.232;2023-09-30T09:21:56;12.00;;;4.20;;
79464;SDS011;68932;47.410;8.232;2023-09-30T09:24:29;12.20;;;4.70;;
79464;SDS011;68932;47.410;8.232;2023-09-30T09:27:05;8.80;;;4.00;;
79464;SDS011;68932;47.410;8.232;2023-09-30T09:29:35;12.00;;;4.10;;
79464;SDS011;68932;47.410;8.232;2023-09-30T09:32:10;11.00;;;4.30;;
79464;SDS011;68932;47.410;8.232;2023-09-30T09:34:40;11.00;;;4.20;;
79464;SDS011;68932;47.410;8.232;2023-09-30T09:37:17;11.30;;;4.50;;
79464;SDS011;68932;47.410;8.232;2023-09-30T09:42:34;12.00;;;3.90;;
79464;SDS011;68932;47.410;8.232;2023-09-30T09:45:03;10.60;;;3.80;;
79464;SDS011;68932;47.410;8.232;2023-09-30T09:47:33;10.20;;;4.60;;
79464;SDS011;68932;47.410;8.232;2023-09-30T09:50:03;10.70;;;4.00;;
79464;SDS011;68932;47.410;8.232;2023-09-30T09:52:33;9.30;;;3.90;;
79464;SDS011;68932;47.410;8.232;2023-09-30T09:55:05;9.90;;;4.40;;
79464;SDS011;68932;47.410;8.232;2023-09-30T09:57:36;9.80;;;3.90;;
79464;SDS011;68932;47.410;8.232;2023-09-30T10:00:10;11.60;;;5.10;;
79464;SDS011;68932;47.410;8.232;2023-09-30T10:02:41;11.80;;;4.60;;
79464;SDS011;68932;47.410;8.232;2023-09-30T10:05:10;10.20;;;4.40;;
79464;SDS011;68932;47.410;8.232;2023-09-30T10:07:39;11.10;;;4.50;;
79464;SDS011;68932;47.410;8.232;2023-09-30T10:10:12;12.40;;;4.30;;
79464;SDS011;68932;47.410;8.232;2023-09-30T10:12:43;10.30;;;4.70;;
79464;SDS011;68932;47.410;8.232;2023-09-30T10:18:07;9.60;;;4.10;;
79464;SDS011;68932;47.410;8.232;2023-09-30T10:20:36;11.80;;;4.80;;
79464;SDS011;68932;47.410;8.232;2023-09-30T10:25:53;12.00;;;5.10;;
79464;SDS011;68932;47.410;8.232;2023-09-30T10:28:41;10.80;;;4.10;;
79464;SDS011;68932;47.410;8.232;2023-09-30T10:31:11;12.60;;;4.20;;
79464;SDS011;68932;47.410;8.232;2023-09-30T10:36:46;13.40;;;5.20;;
79464;SDS011;68932;47.410;8.232;2023-09-30T10:39:17;9.60;;;4.00;;
79464;SDS011;68932;47.410;8.232;2023-09-30T10:51:14;10.00;;;4.00;;
79464;SDS011;68932;47.410;8.232;2023-09-30T10:53:44;14.70;;;4.90;;
79464;SDS011;68932;47.410;8.232;2023-09-30T10:56:14;12.00;;;5.00;;
79464;SDS011;68932;47.410;8.232;2023-09-30T10:58:44;12.40;;;4.80;;
79464;SDS011;68932;47.410;8.232;2023-09-30T11:01:14;13.40;;;5.20;;
79464;SDS011;68932;47.410;8.232;2023-09-30T11:03:44;11.60;;;4.80;;
79464;SDS011;68932;47.410;8.232;2023-09-30T11:06:14;10.80;;;4.70;;
79464;SDS011;68932;47.410;8.232;2023-09-30T11:08:44;13.90;;;5.20;;
79464;SDS011;68932;47.410;8.232;2023-09-30T11:11:17;11.10;;;4.60;;
79464;SDS011;68932;47.410;8.232;2023-09-30T11:13:45;10.80;;;4.90;;
79464;SDS011;68932;47.410;8.232;2023-09-30T11:16:14;12.40;;;5.30;;
79464;SDS011;68932;47.410;8.232;2023-09-30T11:18:42;11.70;;;5.30;;
79464;SDS011;68932;47.410;8.232;2023-09-30T11:21:11;12.70;;;4.40;;
79464;SDS011;68932;47.410;8.232;2023-09-30T11:23:39;11.70;;;4.70;;
79464;SDS011;68932;47.410;8.232;2023-09-30T11:26:08;11.60;;;4.80;;
79464;SDS011;68932;47.410;8.232;2023-09-30T11:28:38;13.10;;;5.30;;
79464;SDS011;68932;47.410;8.232;2023-09-30T11:31:11;15.90;;;5.40;;
79464;SDS011;68932;47.410;8.232;2023-09-30T11:33:50;12.10;;;5.10;;
79464;SDS011;68932;47.410;8.232;2023-09-30T11:36:20;13.10;;;5.00;;
79464;SDS011;68932;47.410;8.232;2023-09-30T11:38:49;10.50;;;4.50;;
79464;SDS011;68932;47.410;8.232;2023-09-30T11:41:18;9.00;;;4.40;;
79464;SDS011;68932;47.410;8.232;2023-09-30T11:44:00;11.70;;;4.70;;
79464;SDS011;68932;47.410;8.232;2023-09-30T11:46:30;13.70;;;4.80;;
79464;SDS011;68932;47.410;8.232;2023-09-30T11:48:59;11.50;;;4.80;;
79464;SDS011;68932;47.410;8.232;2023-09-30T11:51:28;11.70;;;3.70;;
79464;SDS011;68932;47.410;8.232;2023-09-30T11:54:08;10.10;;;3.70;;
79464;SDS011;68932;47.410;8.232;2023-09-30T11:56:37;12.70;;;4.70;;
79464;SDS011;68932;47.410;8.232;2023-09-30T11:59:05;12.50;;;5.00;;
79464;SDS011;68932;47.410;8.232;2023-09-30T12:01:34;13.10;;;5.20;;
79464;SDS011;68932;47.410;8.232;2023-09-30T12:04:02;13.80;;;4.70;;
79464;SDS011;68932;47.410;8.232;2023-09-30T12:06:31;13.20;;;5.00;;
79464;SDS011;68932;47.410;8.232;2023-09-30T12:09:00;10.50;;;5.30;;
79464;SDS011;68932;47.410;8.232;2023-09-30T12:11:28;13.50;;;5.70;;
79464;SDS011;68932;47.410;8.232;2023-09-30T12:13:56;12.10;;;4.80;;
79464;SDS011;68932;47.410;8.232;2023-09-30T12:16:25;15.60;;;5.00;;
79464;SDS011;68932;47.410;8.232;2023-09-30T12:18:53;12.80;;;5.80;;
79464;SDS011;68932;47.410;8.232;2023-09-30T12:21:22;14.70;;;5.30;;
79464;SDS011;68932;47.410;8.232;2023-09-30T12:23:50;12.80;;;4.80;;
79464;SDS011;68932;47.410;8.232;2023-09-30T12:26:18;11.80;;;5.30;;
79464;SDS011;68932;47.410;8.232;2023-09-30T12:28:47;13.30;;;5.80;;
79464;SDS011;68932;47.410;8.232;2023-09-30T12:31:15;11.60;;;5.10;;
79464;SDS011;68932;47.410;8.232;2023-09-30T12:33:44;10.30;;;4.60;;
79464;SDS011;68932;47.410;8.232;2023-09-30T12:36:12;10.10;;;4.60;;
79464;SDS011;68932;47.410;8.232;2023-09-30T12:38:40;12.10;;;4.60;;
79464;SDS011;68932;47.410;8.232;2023-09-30T12:41:09;10.40;;;4.50;;
79464;SDS011;68932;47.410;8.232;2023-09-30T12:43:37;11.40;;;4.10;;
79464;SDS011;68932;47.410;8.232;2023-09-30T12:46:06;10.70;;;4.60;;
79464;SDS011;68932;47.410;8.232;2023-09-30T12:48:34;12.50;;;5.60;;
79464;SDS011;68932;47.410;8.232;2023-09-30T12:51:03;11.30;;;5.20;;
79464;SDS011;68932;47.410;8.232;2023-09-30T12:53:31;10.80;;;4.70;;
79464;SDS011;68932;47.410;8.232;2023-09-30T12:55:59;11.90;;;4.90;;
79464;SDS011;68932;47.410;8.232;2023-09-30T12:58:28;10.40;;;4.80;;
79464;SDS011;68932;47.410;8.232;2023-09-30T13:00:58;10.40;;;4.00;;
79464;SDS011;68932;47.410;8.232;2023-09-30T13:03:26;11.10;;;4.70;;
79464;SDS011;68932;47.410;8.232;2023-09-30T13:05:55;10.60;;;4.60;;
79464;SDS011;68932;47.410;8.232;2023-09-30T13:08:23;11.10;;;4.60;;
79464;SDS011;68932;47.410;8.232;2023-09-30T13:10:52;11.40;;;4.60;;
79464;SDS011;68932;47.410;8.232;2023-09-30T13:13:20;15.40;;;5.10;;
79464;SDS011;68932;47.410;8.232;2023-09-30T13:15:49;15.10;;;5.20;;
79464;SDS011;68932;47.410;8.232;2023-09-30T13:18:17;11.50;;;5.50;;
79464;SDS011;68932;47.410;8.232;2023-09-30T13:20:46;13.40;;;5.70;;
79464;SDS011;68932;47.410;8.232;2023-09-30T13:23:14;11.10;;;4.50;;
79464;SDS011;68932;47.410;8.232;2023-09-30T13:25:43;11.30;;;4.90;;
79464;SDS011;68932;47.410;8.232;2023-09-30T13:28:12;12.10;;;4.80;;
79464;SDS011;68932;47.410;8.232;2023-09-30T13:30:40;11.60;;;4.90;;
79464;SDS011;68932;47.410;8.232;2023-09-30T13:33:09;12.50;;;5.20;;
79464;SDS011;68932;47.410;8.232;2023-09-30T13:35:37;13.30;;;4.60;;
79464;SDS011;68932;47.410;8.232;2023-09-30T13:38:06;12.20;;;4.90;;
79464;SDS011;68932;47.410;8.232;2023-09-30T13:40:34;12.00;;;4.60;;
79464;SDS011;68932;47.410;8.232;2023-09-30T13:43:05;10.80;;;4.40;;
79464;SDS011;68932;47.410;8.232;2023-09-30T13:45:33;11.10;;;4.20;;
79464;SDS011;68932;47.410;8.232;2023-09-30T13:48:02;8.90;;;5.00;;
79464;SDS011;68932;47.410;8.232;2023-09-30T13:50:31;12.40;;;4.90;;
79464;SDS011;68932;47.410;8.232;2023-09-30T13:53:00;11.40;;;4.60;;
79464;SDS011;68932;47.410;8.232;2023-09-30T13:55:28;13.30;;;4.20;;
79464;SDS011;68932;47.410;8.232;2023-09-30T13:57:57;10.90;;;4.70;;
79464;SDS011;68932;47.410;8.232;2023-09-30T14:00:25;11.00;;;4.70;;
79464;SDS011;68932;47.410;8.232;2023-09-30T14:02:53;14.10;;;5.50;;
79464;SDS011;68932;47.410;8.232;2023-09-30T14:05:22;9.60;;;4.50;;
79464;SDS011;68932;47.410;8.232;2023-09-30T14:07:50;10.80;;;4.50;;
79464;SDS011;68932;47.410;8.232;2023-09-30T14:10:19;11.20;;;4.90;;
79464;SDS011;68932;47.410;8.232;2023-09-30T14:12:47;10.80;;;4.50;;
79464;SDS011;68932;47.410;8.232;2023-09-30T14:15:16;11.10;;;4.60;;
79464;SDS011;68932;47.410;8.232;2023-09-30T14:17:44;12.50;;;5.00;;
79464;SDS011;68932;47.410;8.232;2023-09-30T14:20:12;12.40;;;4.30;;
79464;SDS011;68932;47.410;8.232;2023-09-30T14:22:41;12.00;;;4.80;;
79464;SDS011;68932;47.410;8.232;2023-09-30T14:25:09;11.00;;;4.80;;
79464;SDS011;68932;47.410;8.232;2023-09-30T14:27:38;10.10;;;4.10;;
79464;SDS011;68932;47.410;8.232;2023-09-30T14:30:07;10.60;;;4.30;;
79464;SDS011;68932;47.410;8.232;2023-09-30T14:32:36;10.60;;;3.50;;
79464;SDS011;68932;47.410;8.232;2023-09-30T14:35:05;10.20;;;4.70;;
79464;SDS011;68932;47.410;8.232;2023-09-30T14:37:35;9.30;;;3.70;;
79464;SDS011;68932;47.410;8.232;2023-09-30T14:40:04;10.20;;;4.60;;
79464;SDS011;68932;47.410;8.232;2023-09-30T14:42:33;10.80;;;4.30;;
79464;SDS011;68932;47.410;8.232;2023-09-30T14:45:01;8.30;;;3.90;;
79464;SDS011;68932;47.410;8.232;2023-09-30T14:47:31;10.70;;;4.30;;
79464;SDS011;68932;47.410;8.232;2023-09-30T14:49:59;8.50;;;3.60;;
79464;SDS011;68932;47.410;8.232;2023-09-30T14:52:27;9.50;;;4.10;;
79464;SDS011;68932;47.410;8.232;2023-09-30T14:54:56;9.90;;;4.30;;
79464;SDS011;68932;47.410;8.232;2023-09-30T14:57:24;9.80;;;4.20;;
79464;SDS011;68932;47.410;8.232;2023-09-30T14:59:53;11.70;;;4.60;;
79464;SDS011;68932;47.410;8.232;2023-09-30T15:02:23;10.20;;;4.10;;
79464;SDS011;68932;47.410;8.232;2023-09-30T15:04:51;9.90;;;4.30;;
79464;SDS011;68932;47.410;8.232;2023-09-30T15:07:20;10.60;;;4.30;;
79464;SDS011;68932;47.410;8.232;2023-09-30T15:09:48;10.60;;;4.10;;